createdAt,value
2022-08-22T00:00:33.840Z,19.92
2022-08-22T00:03:09.594Z,12.40
2022-08-22T00:06:15.655Z,14.57
2022-08-22T00:11:57.848Z,13.75
2022-08-22T00:17:14.734Z,15.73
2022-08-22T00:22:34.244Z,13.95
2022-08-22T00:27:51.505Z,14.90
2022-08-22T00:32:58.817Z,14.50
2022-08-22T00:38:13.556Z,13.95
2022-08-22T00:43:43.687Z,14.83
2022-08-22T00:49:17.379Z,15.73
2022-08-22T00:54:20.158Z,14.50
2022-08-22T00:59:28.858Z,20.88
2022-08-22T01:04:52.720Z,14.18
2022-08-22T01:10:20.393Z,17.10
2022-08-22T01:15:27.879Z,15.55
2022-08-22T01:20:52.263Z,14.88
2022-08-22T01:26:09.898Z,17.13
2022-08-22T01:31:45.078Z,16.17
2022-08-22T01:37:11.926Z,16.83
2022-08-22T01:42:42.486Z,16.40
2022-08-22T01:47:54.192Z,15.00
2022-08-22T01:53:15.563Z,14.73
2022-08-22T01:58:22.362Z,16.38
2022-08-22T02:03:33.525Z,16.52
2022-08-22T02:09:21.140Z,15.35
2022-08-22T02:14:44.606Z,15.45
2022-08-22T02:20:10.108Z,12.73
2022-08-22T02:25:21.524Z,13.07
2022-08-22T02:30:48.968Z,14.38
2022-08-22T02:36:00.420Z,10.18
2022-08-22T02:41:27.359Z,10.05
2022-08-22T02:46:42.394Z,10.57
2022-08-22T02:52:03.747Z,9.80
2022-08-22T02:57:13.072Z,14.93
2022-08-22T03:02:37.123Z,10.70
2022-08-22T03:07:46.331Z,11.95
2022-08-22T03:13:11.731Z,10.20
2022-08-22T03:18:41.989Z,9.27
2022-08-22T03:23:55.690Z,12.68
2022-08-22T03:29:06.887Z,11.45
2022-08-22T03:34:25.499Z,10.48
2022-08-22T03:39:47.003Z,14.70
2022-08-22T03:45:11.627Z,12.27
2022-08-22T03:50:47.879Z,10.00
2022-08-22T03:56:28.088Z,11.68
2022-08-22T04:01:43.510Z,9.15
2022-08-22T04:07:01.840Z,9.32
2022-08-22T04:12:41.648Z,10.38
2022-08-22T04:17:57.648Z,10.13
2022-08-22T04:23:19.376Z,11.02
2022-08-22T04:28:36.786Z,9.60
2022-08-22T04:33:51.168Z,10.27
2022-08-22T04:39:04.433Z,11.32
2022-08-22T04:44:33.103Z,7.65
2022-08-22T04:49:39.865Z,8.10
2022-08-22T04:55:09.108Z,7.43
2022-08-22T05:00:14.449Z,8.25
2022-08-22T05:05:24.269Z,9.85
2022-08-22T05:10:33.829Z,8.55
2022-08-22T05:15:43.215Z,7.72
2022-08-22T05:20:49.252Z,7.90
2022-08-22T05:25:55.914Z,7.72
2022-08-22T05:30:58.884Z,8.55
2022-08-22T05:36:26.284Z,7.38
2022-08-22T05:41:34.122Z,8.93
2022-08-22T05:46:46.166Z,6.35
2022-08-22T05:51:59.086Z,6.72
2022-08-22T05:57:26.773Z,7.40
2022-08-22T06:02:52.592Z,7.20
2022-08-22T06:08:45.046Z,8.52
2022-08-22T06:14:19.775Z,6.32
2022-08-22T06:19:27.785Z,7.93
2022-08-22T06:24:37.218Z,6.20
2022-08-22T06:29:49.682Z,6.20
2022-08-22T06:35:02.341Z,5.30
2022-08-22T06:40:09.136Z,5.03
2022-08-22T06:45:24.653Z,4.75
2022-08-22T06:50:32.280Z,6.27
2022-08-22T06:55:36.393Z,6.03
2022-08-22T07:00:42.951Z,6.32
2022-08-22T07:05:45.768Z,5.65
2022-08-22T07:10:56.275Z,6.43
2022-08-22T07:16:00.345Z,6.88
2022-08-22T07:21:05.220Z,5.32
2022-08-22T07:26:26.317Z,5.82
2022-08-22T07:31:47.223Z,6.22
2022-08-22T07:37:04.301Z,8.98
2022-08-22T07:47:26.310Z,6.97
2022-08-22T07:52:36.068Z,4.28
2022-08-22T07:57:42.273Z,6.72
2022-08-22T08:02:57.057Z,7.38
2022-08-22T08:08:02.993Z,5.50
2022-08-22T08:13:08.686Z,5.60
2022-08-22T08:18:21.286Z,4.30
2022-08-22T08:23:25.459Z,8.57
2022-08-22T08:28:34.225Z,4.65
2022-08-22T08:33:41.706Z,8.13
2022-08-22T08:38:50.223Z,7.25
2022-08-22T08:44:31.221Z,10.50
2022-08-22T08:49:35.403Z,10.23
2022-08-22T08:54:56.003Z,6.38
2022-08-22T09:00:15.910Z,10.77
2022-08-22T09:05:40.253Z,7.35
2022-08-22T09:11:11.981Z,5.25
2022-08-22T09:16:47.307Z,7.25
2022-08-22T09:22:20.036Z,8.43
2022-08-22T09:27:46.508Z,8.55
2022-08-22T09:33:15.156Z,5.40
2022-08-22T09:38:40.412Z,8.32
2022-08-22T09:44:25.275Z,6.93
2022-08-22T09:49:58.783Z,6.47
2022-08-22T09:55:08.612Z,4.55
2022-08-22T10:00:27.390Z,5.78
2022-08-22T10:05:43.574Z,4.13
2022-08-22T10:11:19.610Z,3.15
2022-08-22T10:16:27.229Z,2.38
2022-08-22T10:21:39.690Z,2.50
2022-08-22T10:26:53.086Z,3.10
2022-08-22T10:32:14.644Z,7.07
2022-08-22T10:37:47.940Z,4.78
2022-08-22T10:43:02.386Z,5.18
2022-08-22T10:48:05.119Z,4.18
2022-08-22T10:53:36.366Z,6.13
2022-08-22T10:59:20.001Z,7.00
2022-08-22T11:04:39.656Z,8.10
2022-08-22T11:09:54.290Z,5.53
2022-08-22T11:15:06.239Z,5.60
2022-08-22T11:20:54.061Z,8.18
2022-08-22T11:26:05.568Z,11.48
2022-08-22T11:31:23.416Z,9.63
2022-08-22T11:36:50.314Z,11.88
2022-08-22T11:41:59.693Z,8.63
2022-08-22T11:47:03.519Z,9.20
2022-08-22T11:52:22.646Z,7.68
2022-08-22T11:57:44.805Z,7.65
2022-08-22T12:03:06.013Z,8.18
2022-08-22T12:08:15.202Z,8.23
2022-08-22T12:19:15.771Z,9.45
2022-08-22T12:24:32.205Z,9.05
2022-08-22T12:29:51.853Z,9.60
2022-08-22T12:35:01.087Z,7.38
2022-08-22T12:40:27.324Z,5.53
2022-08-22T12:45:42.083Z,7.32
2022-08-22T12:56:06.822Z,9.52
2022-08-22T13:01:13.449Z,15.18
2022-08-22T13:06:37.972Z,15.63
2022-08-22T13:11:42.553Z,12.10
2022-08-22T13:16:51.629Z,14.48
2022-08-22T13:22:24.425Z,13.23
2022-08-22T13:27:34.685Z,10.02
2022-08-22T13:32:46.093Z,11.07
2022-08-22T13:37:52.098Z,11.15
2022-08-22T13:43:12.313Z,22.90
2022-08-22T13:48:16.129Z,11.02
2022-08-22T13:53:48.944Z,15.07
2022-08-22T13:59:06.326Z,12.77
2022-08-22T14:04:32.044Z,14.38
2022-08-22T14:09:59.139Z,15.40
2022-08-22T14:15:08.340Z,16.83
2022-08-22T14:20:32.177Z,32.28
2022-08-22T14:25:39.108Z,33.33
2022-08-22T14:36:15.473Z,27.25
2022-08-22T14:41:52.356Z,27.42
2022-08-22T14:47:04.357Z,27.40
2022-08-22T14:52:36.294Z,20.60
2022-08-22T14:57:54.870Z,23.13
2022-08-22T15:03:21.396Z,25.33
2022-08-22T15:08:33.273Z,18.55
2022-08-22T15:13:37.523Z,27.67
2022-08-22T15:18:41.588Z,21.02
2022-08-22T15:24:03.685Z,15.02
2022-08-22T15:29:21.178Z,20.02
2022-08-22T15:34:24.411Z,16.45
2022-08-22T15:39:32.664Z,22.65
2022-08-22T15:44:44.383Z,21.77
2022-08-22T15:49:58.644Z,18.98
2022-08-22T15:55:19.948Z,19.20
2022-08-22T16:00:36.375Z,19.50
2022-08-22T16:05:55.357Z,18.75
2022-08-22T16:11:17.065Z,26.52
2022-08-22T16:16:35.124Z,24.20
2022-08-22T16:21:59.900Z,21.92
2022-08-22T16:27:25.626Z,28.38
2022-08-22T16:32:28.924Z,22.40
2022-08-22T16:37:36.717Z,16.83
2022-08-22T16:42:46.840Z,17.52
2022-08-22T16:47:58.149Z,16.83
2022-08-22T16:53:21.703Z,18.30
2022-08-22T16:58:57.513Z,20.45
2022-08-22T17:04:28.521Z,21.85
2022-08-22T17:09:52.569Z,18.40
2022-08-22T17:15:22.686Z,19.05
2022-08-22T17:20:58.855Z,24.30
2022-08-22T17:26:08.903Z,20.92
2022-08-22T17:31:31.896Z,16.13
2022-08-22T17:36:40.481Z,15.20
2022-08-22T17:42:21.158Z,16.48
2022-08-22T17:47:31.000Z,16.40
2022-08-22T17:52:49.748Z,16.23
2022-08-22T17:58:05.152Z,16.17
2022-08-22T18:14:05.150Z,10.63
2022-08-22T18:19:29.254Z,10.52
2022-08-22T18:25:19.450Z,9.73
2022-08-22T18:30:27.852Z,7.80
2022-08-22T18:35:33.382Z,8.95
2022-08-22T18:40:54.029Z,8.73
2022-08-22T18:46:02.963Z,10.98
2022-08-22T18:51:32.218Z,10.93
2022-08-22T18:57:18.858Z,9.18
2022-08-22T19:03:00.991Z,13.70
2022-08-22T19:08:17.028Z,11.07
2022-08-22T19:13:22.933Z,10.93
2022-08-22T19:18:43.586Z,12.90
2022-08-22T19:23:48.877Z,10.80
2022-08-22T19:28:53.992Z,10.80
2022-08-22T19:34:20.067Z,12.32
2022-08-22T19:39:41.441Z,10.65
2022-08-22T19:44:47.524Z,12.48
2022-08-22T19:50:17.848Z,11.07
2022-08-22T19:55:29.602Z,8.65
2022-08-22T20:01:00.203Z,12.00
2022-08-22T20:06:43.529Z,11.13
2022-08-22T20:12:13.278Z,10.23
2022-08-22T20:17:27.146Z,9.02
2022-08-22T20:23:05.650Z,11.80
2022-08-22T20:28:10.284Z,13.05
2022-08-22T20:33:27.984Z,12.57
2022-08-22T20:38:40.254Z,11.65
2022-08-22T20:43:46.879Z,12.18
2022-08-22T20:48:51.968Z,15.65
2022-08-22T20:54:10.291Z,11.00
2022-08-22T20:59:36.190Z,12.82
2022-08-22T21:04:46.716Z,14.13
2022-08-22T21:10:22.614Z,12.27
2022-08-22T21:15:41.015Z,14.27
2022-08-22T21:20:43.790Z,14.77
2022-08-22T21:25:56.419Z,16.23
2022-08-22T21:31:00.086Z,13.02
2022-08-22T21:36:02.916Z,17.25
2022-08-22T21:41:06.411Z,17.23
2022-08-22T21:46:09.182Z,15.65
2022-08-22T21:51:45.347Z,18.63
2022-08-22T21:56:49.715Z,21.35
2022-08-22T22:01:53.850Z,16.95
2022-08-22T22:06:58.366Z,21.10
2022-08-22T22:12:01.469Z,18.42
2022-08-22T22:17:04.447Z,19.58
2022-08-22T22:22:07.345Z,23.60
2022-08-22T22:27:14.931Z,19.50
2022-08-22T22:32:19.653Z,20.00
2022-08-22T22:37:22.385Z,18.50
2022-08-22T22:42:25.214Z,22.10
2022-08-22T22:47:29.987Z,21.80
2022-08-22T22:52:33.093Z,25.13
2022-08-22T22:57:42.488Z,22.98
2022-08-22T23:02:45.570Z,23.52
2022-08-22T23:07:48.339Z,19.25
2022-08-22T23:12:51.149Z,23.08
2022-08-22T23:17:54.015Z,21.90
2022-08-22T23:22:56.852Z,25.02
2022-08-22T23:28:00.116Z,27.27
2022-08-22T23:33:03.367Z,31.52
2022-08-22T23:38:06.181Z,26.70
2022-08-22T23:43:08.995Z,25.70
2022-08-22T23:48:11.885Z,29.10
2022-08-22T23:53:14.680Z,22.25
2022-08-22T23:58:17.501Z,21.23
